Time;durP1;ratioP1;P1;durP2;ratioP2;P2;SDS_P1;SDS_P2;PMS_P1;PMS_P2;Temp;Humidity;BMP_temperature;BMP_pressure;BME280_temperature;BME280_humidity;BME280_pressure;Samples;Min_cycle;Max_cycle;Signal;HPM_P1;HPM_P2
2022/12/30 00:01:22;;;;;;;14.13;7.60;;;7.60;99.90;;;;;;5075977;28;20187;-81
2022/12/30 00:03:58;;;;;;;12.70;7.07;;;7.60;99.90;;;;;;5056833;28;20967;-81
2022/12/30 00:06:28;;;;;;;17.33;7.57;;;7.60;99.90;;;;;;5057017;28;20216;-81
2022/12/30 00:08:56;;;;;;;14.27;7.37;;;7.60;99.90;;;;;;5054933;28;20211;-81
2022/12/30 00:11:36;;;;;;;14.67;7.73;;;7.70;99.90;;;;;;5054899;28;20194;-80
2022/12/30 00:34:36;;;;;;;11.13;7.07;;;7.60;99.90;;;;;;5055184;28;20598;-85
2022/12/30 00:37:08;;;;;;;14.00;7.43;;;7.60;99.90;;;;;;5073877;28;20221;-80
2022/12/30 00:39:41;;;;;;;15.03;7.00;;;7.60;99.90;;;;;;5055966;28;20205;-81
2022/12/30 00:45:03;;;;;;;13.93;7.07;;;7.50;99.90;;;;;;5074170;28;20222;-91
2022/12/30 00:47:36;;;;;;;15.10;7.03;;;7.50;99.90;;;;;;5056110;28;20228;-87
2022/12/30 00:58:39;;;;;;;12.50;7.07;;;7.30;99.90;;;;;;5055316;28;20279;-90
2022/12/30 01:01:27;;;;;;;13.90;7.37;;;7.30;99.90;;;;;;5064247;28;20200;-96
2022/12/30 01:04:15;;;;;;;13.10;6.80;;;7.30;99.90;;;;;;5055313;28;20194;-77
2022/12/30 01:07:04;;;;;;;14.10;7.20;;;7.30;99.90;;;;;;5073384;28;20197;-84
2022/12/30 01:09:48;;;;;;;11.97;6.80;;;7.20;99.90;;;;;;5054386;28;20208;-88
2022/12/30 01:12:22;;;;;;;14.77;7.37;;;7.20;99.90;;;;;;5059590;28;20185;-85
2022/12/30 01:15:27;;;;;;;13.87;6.70;;;7.20;99.90;;;;;;5062723;28;20281;-86
2022/12/30 01:17:56;;;;;;;12.83;7.03;;;7.30;99.90;;;;;;4976810;28;20357;-84
2022/12/30 01:20:27;;;;;;;12.70;7.10;;;7.20;99.90;;;;;;4973730;28;20209;-80
2022/12/30 01:23:01;;;;;;;12.80;6.97;;;7.20;99.90;;;;;;4956050;28;20230;-82
2022/12/30 01:25:29;;;;;;;13.50;7.20;;;7.20;99.90;;;;;;4973001;28;20199;-84
2022/12/30 01:28:01;;;;;;;14.93;7.30;;;7.20;99.90;;;;;;4955788;28;20212;-78
2022/12/30 01:30:29;;;;;;;13.20;6.87;;;7.00;99.90;;;;;;4958918;28;20221;-80
2022/12/30 01:32:56;;;;;;;13.77;7.03;;;7.10;99.90;;;;;;4943309;28;20299;-81
2022/12/30 01:35:24;;;;;;;12.47;7.30;;;7.00;99.90;;;;;;4976037;28;20673;-82
2022/12/30 01:37:51;;;;;;;13.53;6.93;;;7.20;99.90;;;;;;4994620;28;20266;-80
2022/12/30 01:40:20;;;;;;;14.27;7.97;;;7.00;99.90;;;;;;4978363;28;20206;-84
2022/12/30 01:42:50;;;;;;;14.83;6.80;;;7.10;99.90;;;;;;4995902;28;20248;-82
2022/12/30 01:45:23;;;;;;;13.20;7.43;;;7.00;99.90;;;;;;4978163;28;20211;-87
2022/12/30 01:48:05;;;;;;;13.40;7.30;;;7.00;99.90;;;;;;4977769;28;20236;-86
2022/12/30 01:50:55;;;;;;;13.83;7.57;;;6.90;99.90;;;;;;4978128;28;20192;-85
2022/12/30 01:53:33;;;;;;;13.07;7.10;;;6.90;99.90;;;;;;4961810;28;20204;-86
2022/12/30 01:56:25;;;;;;;14.13;7.90;;;6.90;99.90;;;;;;5042135;28;20215;-77
2022/12/30 01:59:09;;;;;;;12.20;7.07;;;6.70;99.90;;;;;;5060366;28;20184;-80
2022/12/30 02:01:39;;;;;;;15.43;7.87;;;6.80;99.90;;;;;;5075475;28;20692;-83
2022/12/30 02:04:15;;;;;;;12.87;7.57;;;6.70;99.90;;;;;;5077156;28;20194;-81
2022/12/30 02:06:51;;;;;;;15.80;8.10;;;6.80;99.90;;;;;;5077422;28;20207;-81
2022/12/30 02:09:19;;;;;;;13.50;7.07;;;6.70;99.90;;;;;;5077136;28;20266;-79
2022/12/30 02:11:58;;;;;;;15.33;7.70;;;6.70;99.90;;;;;;5077641;28;20632;-90
2022/12/30 02:14:29;;;;;;;16.40;8.00;;;6.80;99.90;;;;;;5095421;28;20264;-91
2022/12/30 02:17:03;;;;;;;15.80;7.80;;;6.70;99.90;;;;;;5078209;28;20245;-87
2022/12/30 02:20:00;;;;;;;15.90;8.20;;;6.70;99.90;;;;;;5095533;28;20277;-79
2022/12/30 02:23:16;;;;;;;13.67;7.23;;;6.70;99.90;;;;;;5095488;28;20213;-77
2022/12/30 02:26:37;;;;;;;16.50;7.40;;;6.70;99.90;;;;;;5076542;28;20212;-77
2022/12/30 02:29:46;;;;;;;13.63;7.63;;;6.70;99.90;;;;;;5062383;28;20604;-77
2022/12/30 02:32:42;;;;;;;14.47;7.50;;;6.70;99.90;;;;;;5076654;28;20565;-76
2022/12/30 02:35:59;;;;;;;15.77;8.00;;;6.70;99.90;;;;;;5076770;28;20191;-77
2022/12/30 02:39:10;;;;;;;16.00;7.67;;;6.60;99.90;;;;;;4942885;28;20222;-76
2022/12/30 02:44:58;;;;;;;16.00;8.23;;;6.70;99.90;;;;;;4954246;29;20288;-77
2022/12/30 02:47:47;;;;;;;15.00;8.23;;;6.60;99.90;;;;;;4954056;29;20260;-77
2022/12/30 02:53:41;;;;;;;15.67;7.90;;;6.60;99.90;;;;;;4956527;28;20210;-76
2022/12/30 02:56:49;;;;;;;16.27;8.17;;;6.60;99.90;;;;;;4908776;29;20212;-77
2022/12/30 03:06:15;;;;;;;15.03;7.60;;;6.60;99.90;;;;;;4953845;29;20221;-77
2022/12/30 03:08:58;;;;;;;14.37;7.83;;;6.50;99.90;;;;;;4918889;29;20233;-77
2022/12/30 03:11:55;;;;;;;13.10;7.60;;;6.50;99.90;;;;;;4919268;29;20210;-78
2022/12/30 03:14:33;;;;;;;13.73;7.67;;;6.60;99.90;;;;;;4977570;28;20568;-77
2022/12/30 03:17:18;;;;;;;15.97;8.20;;;6.50;99.90;;;;;;5015320;28;20253;-78
2022/12/30 03:20:04;;;;;;;18.13;8.10;;;6.50;99.90;;;;;;5031829;28;20230;-78
2022/12/30 03:28:26;;;;;;;16.33;7.60;;;6.40;99.90;;;;;;5015321;28;20222;-79
2022/12/30 03:31:07;;;;;;;15.57;7.73;;;6.40;99.90;;;;;;5031466;28;20572;-79
2022/12/30 03:33:38;;;;;;;15.70;8.07;;;6.30;99.90;;;;;;5014991;28;20201;-79
2022/12/30 03:36:22;;;;;;;15.60;8.23;;;6.30;99.90;;;;;;5031531;28;20197;-78
2022/12/30 03:38:59;;;;;;;15.00;8.10;;;6.30;99.90;;;;;;5014869;28;20600;-78
2022/12/30 03:41:31;;;;;;;13.63;7.73;;;6.30;99.90;;;;;;5015041;28;20185;-79
2022/12/30 03:43:58;;;;;;;15.70;8.40;;;6.30;99.90;;;;;;5021169;28;20536;-78
2022/12/30 03:46:46;;;;;;;15.83;8.17;;;6.30;99.90;;;;;;5033602;28;20195;-78
2022/12/30 03:49:33;;;;;;;16.90;8.03;;;6.30;99.90;;;;;;4937177;29;20214;-79
2022/12/30 03:52:01;;;;;;;15.40;7.40;;;6.30;99.90;;;;;;5020843;28;20203;-79
2022/12/30 03:54:31;;;;;;;16.03;7.77;;;6.40;99.90;;;;;;5039118;28;20250;-79
2022/12/30 03:56:58;;;;;;;14.73;7.67;;;6.40;99.90;;;;;;5052002;28;20585;-78
2022/12/30 03:59:26;;;;;;;14.63;8.40;;;6.50;99.90;;;;;;5053220;28;20187;-79
2022/12/30 04:01:53;;;;;;;16.23;7.90;;;6.40;99.90;;;;;;5037668;28;20201;-79
2022/12/30 04:04:20;;;;;;;16.97;7.83;;;6.60;99.90;;;;;;5033170;28;20199;-79
2022/12/30 04:06:48;;;;;;;14.83;8.00;;;6.60;99.90;;;;;;5031841;28;20203;-78
2022/12/30 04:09:15;;;;;;;15.17;8.10;;;6.70;99.90;;;;;;5046183;28;20337;-78
2022/12/30 04:11:42;;;;;;;12.93;7.70;;;6.70;99.90;;;;;;5037571;28;20197;-77
2022/12/30 04:14:10;;;;;;;15.07;7.47;;;6.60;99.90;;;;;;5045695;28;20655;-78
2022/12/30 04:16:38;;;;;;;14.67;8.17;;;6.50;99.90;;;;;;5033150;28;20273;-77
2022/12/30 04:19:05;;;;;;;16.20;8.17;;;6.50;99.90;;;;;;5033432;28;20551;-78
2022/12/30 04:21:32;;;;;;;16.10;7.70;;;6.60;99.90;;;;;;5015281;28;20210;-78
2022/12/30 04:24:09;;;;;;;16.07;7.83;;;6.60;99.90;;;;;;5031623;28;20599;-78
2022/12/30 04:26:39;;;;;;;14.53;7.40;;;6.50;99.90;;;;;;5032994;28;20199;-78
2022/12/30 04:29:27;;;;;;;12.73;7.67;;;6.70;99.90;;;;;;5031850;28;20540;-77
2022/12/30 04:32:49;;;;;;;14.00;7.73;;;6.60;99.90;;;;;;5012047;28;20193;-77
2022/12/30 04:35:11;;;;;;;15.63;8.67;;;6.60;99.90;;;;;;5006267;28;20558;-76
2022/12/30 04:37:46;;;;;;;16.03;8.03;;;6.60;99.90;;;;;;5028868;28;20226;-77
2022/12/30 04:40:30;;;;;;;16.53;7.67;;;6.60;99.90;;;;;;5052497;28;20678;-77
2022/12/30 04:43:11;;;;;;;13.50;7.73;;;6.60;99.90;;;;;;5035062;28;20195;-77
2022/12/30 04:45:57;;;;;;;14.37;7.43;;;6.70;99.90;;;;;;5035544;28;20298;-77
2022/12/30 04:48:38;;;;;;;15.17;7.47;;;6.70;99.90;;;;;;5035063;28;20234;-78
2022/12/30 04:51:09;;;;;;;13.63;7.73;;;6.60;99.90;;;;;;5034797;28;20209;-77
2022/12/30 04:53:47;;;;;;;13.47;7.60;;;6.70;99.90;;;;;;5035204;28;20204;-77
2022/12/30 04:56:23;;;;;;;14.80;7.93;;;6.80;99.90;;;;;;5034495;28;20200;-78
2022/12/30 04:58:53;;;;;;;15.77;7.70;;;6.70;99.90;;;;;;5052798;28;20236;-77
2022/12/30 05:01:21;;;;;;;13.00;6.83;;;6.70;99.90;;;;;;5034877;28;20252;-78
2022/12/30 05:03:48;;;;;;;13.20;7.40;;;6.60;99.90;;;;;;5038273;28;20255;-77
2022/12/30 05:06:28;;;;;;;14.10;7.17;;;6.70;99.90;;;;;;5022406;28;20207;-77
2022/12/30 05:08:56;;;;;;;15.97;7.40;;;6.80;99.90;;;;;;5038012;28;20235;-77
2022/12/30 05:11:24;;;;;;;14.17;7.50;;;6.80;99.90;;;;;;5031450;28;20673;-78
2022/12/30 05:14:01;;;;;;;14.67;7.73;;;6.80;99.90;;;;;;5059347;28;20196;-77
2022/12/30 05:16:28;;;;;;;15.67;7.33;;;6.80;99.90;;;;;;5058745;28;20205;-76
2022/12/30 05:19:07;;;;;;;13.00;7.20;;;6.80;99.90;;;;;;5045713;28;20205;-78
2022/12/30 05:21:37;;;;;;;14.17;7.90;;;6.90;99.90;;;;;;5038573;28;20190;-77
2022/12/30 05:26:54;;;;;;;14.10;7.43;;;6.80;99.90;;;;;;5038102;28;20208;-79
2022/12/30 05:29:22;;;;;;;15.20;7.77;;;6.80;99.90;;;;;;5056355;28;20235;-78
2022/12/30 05:31:49;;;;;;;11.97;6.90;;;6.80;99.90;;;;;;5021823;28;20199;-78
2022/12/30 05:34:16;;;;;;;14.67;8.20;;;6.80;99.90;;;;;;5037963;28;20206;-78
2022/12/30 05:36:43;;;;;;;17.03;7.60;;;6.90;99.90;;;;;;5037805;28;20244;-78
2022/12/30 05:39:12;;;;;;;13.10;8.00;;;6.90;99.90;;;;;;5050949;28;20524;-79
2022/12/30 05:41:42;;;;;;;15.60;7.67;;;6.80;99.90;;;;;;5035776;28;20219;-78
2022/12/30 05:44:09;;;;;;;13.17;8.07;;;6.80;99.90;;;;;;5034990;28;20608;-78
2022/12/30 05:46:36;;;;;;;14.27;7.60;;;6.80;99.90;;;;;;5034729;28;20525;-78
2022/12/30 05:49:04;;;;;;;15.33;8.17;;;6.90;99.90;;;;;;5034820;28;20705;-78
2022/12/30 05:51:45;;;;;;;14.80;7.60;;;6.80;99.90;;;;;;5034625;28;20233;-77
2022/12/30 05:54:15;;;;;;;15.37;7.47;;;6.90;99.90;;;;;;5038460;28;20198;-78
2022/12/30 05:56:42;;;;;;;14.77;7.90;;;6.90;99.90;;;;;;5034366;28;20199;-79
2022/12/30 05:59:10;;;;;;;15.00;7.80;;;6.90;99.90;;;;;;5034361;28;20210;-78
2022/12/30 06:01:37;;;;;;;14.30;8.03;;;6.90;99.90;;;;;;5035837;28;20189;-78
2022/12/30 06:04:04;;;;;;;15.10;8.23;;;6.90;99.90;;;;;;5053042;28;20206;-79
2022/12/30 06:06:37;;;;;;;12.90;7.37;;;7.00;99.90;;;;;;5053709;28;20200;-79
2022/12/30 06:09:05;;;;;;;17.87;8.40;;;7.00;99.90;;;;;;5054089;28;20217;-78
2022/12/30 06:11:33;;;;;;;16.97;8.50;;;7.00;99.90;;;;;;5039046;28;20198;-77
2022/12/30 06:14:15;;;;;;;15.57;8.47;;;7.00;99.90;;;;;;5048456;28;20236;-77
2022/12/30 06:16:47;;;;;;;16.50;8.03;;;6.90;99.90;;;;;;5033943;28;20291;-79
2022/12/30 06:19:45;;;;;;;14.50;8.00;;;6.80;99.90;;;;;;5067047;28;20199;-78
2022/12/30 06:22:13;;;;;;;15.93;8.27;;;6.90;99.90;;;;;;5053851;28;20552;-78
2022/12/30 06:25:24;;;;;;;13.87;7.57;;;6.90;99.90;;;;;;5050847;28;20284;-78
2022/12/30 06:27:55;;;;;;;14.10;7.87;;;6.80;99.90;;;;;;5039225;28;20216;-78
2022/12/30 06:30:25;;;;;;;14.43;7.50;;;6.80;99.90;;;;;;5054917;28;20219;-79
2022/12/30 06:32:59;;;;;;;13.07;7.70;;;6.90;99.90;;;;;;5053743;28;20654;-79
2022/12/30 06:35:26;;;;;;;13.70;8.50;;;6.90;99.90;;;;;;5054298;28;20182;-78
2022/12/30 06:37:53;;;;;;;13.63;7.93;;;6.90;99.90;;;;;;5041020;28;20588;-78
2022/12/30 06:40:21;;;;;;;15.43;8.07;;;6.90;99.90;;;;;;5033316;28;20215;-78
2022/12/30 06:43:31;;;;;;;16.73;8.57;;;6.90;99.90;;;;;;5033035;28;20207;-78
2022/12/30 06:46:07;;;;;;;13.63;7.40;;;6.90;99.90;;;;;;5024399;28;20682;-76
2022/12/30 06:49:01;;;;;;;16.10;7.63;;;6.80;99.90;;;;;;5030206;28;20202;-77
2022/12/30 06:51:41;;;;;;;14.40;7.40;;;6.90;99.90;;;;;;5018816;28;20197;-77
2022/12/30 06:54:21;;;;;;;16.80;8.13;;;7.00;99.90;;;;;;5005070;28;20195;-78
2022/12/30 06:56:57;;;;;;;13.70;7.47;;;7.00;99.90;;;;;;5030859;28;20205;-77
2022/12/30 06:59:29;;;;;;;13.80;7.30;;;7.00;99.90;;;;;;5028128;28;20209;-79
2022/12/30 07:02:00;;;;;;;14.60;7.70;;;7.10;99.90;;;;;;5043182;28;20660;-88
2022/12/30 07:04:27;;;;;;;14.67;7.57;;;7.10;99.90;;;;;;5016585;28;20219;-84
2022/12/30 07:06:55;;;;;;;14.53;7.97;;;7.10;99.90;;;;;;5015024;28;20291;-82
2022/12/30 07:09:22;;;;;;;14.60;7.20;;;7.10;99.90;;;;;;5014384;28;20503;-77
2022/12/30 07:11:49;;;;;;;15.40;7.37;;;7.20;99.90;;;;;;5029594;28;20188;-77
2022/12/30 07:14:19;;;;;;;13.30;7.67;;;7.20;99.90;;;;;;5018553;28;20204;-77
2022/12/30 07:16:46;;;;;;;13.90;7.10;;;7.10;99.90;;;;;;5019253;28;20224;-75
2022/12/30 07:19:14;;;;;;;14.43;7.57;;;7.20;99.90;;;;;;5013017;28;20204;-78
2022/12/30 07:21:50;;;;;;;14.37;7.17;;;7.20;99.90;;;;;;5012845;28;20218;-83
2022/12/30 07:24:24;;;;;;;13.23;7.37;;;7.20;99.90;;;;;;5013700;28;20636;-77
2022/12/30 07:26:51;;;;;;;14.33;7.37;;;7.30;99.90;;;;;;5012970;28;20261;-78
2022/12/30 07:29:20;;;;;;;14.10;7.53;;;7.20;99.90;;;;;;5014486;28;20225;-77
2022/12/30 07:31:47;;;;;;;18.17;7.87;;;7.30;99.90;;;;;;5021319;28;20367;-77
2022/12/30 07:34:17;;;;;;;15.03;7.50;;;7.30;99.90;;;;;;5014255;28;20252;-78
2022/12/30 07:36:50;;;;;;;14.33;7.53;;;7.30;99.90;;;;;;5031322;28;20283;-78
2022/12/30 07:39:26;;;;;;;13.37;7.03;;;7.40;99.90;;;;;;5052695;28;20539;-78
2022/12/30 07:42:03;;;;;;;16.97;7.53;;;7.30;99.90;;;;;;5053242;28;20193;-78
2022/12/30 07:44:47;;;;;;;12.63;6.70;;;7.30;99.90;;;;;;5038436;28;20679;-78
2022/12/30 07:47:14;;;;;;;16.43;7.83;;;7.40;99.90;;;;;;5056989;28;20294;-77
2022/12/30 07:49:41;;;;;;;12.83;6.60;;;7.30;99.90;;;;;;5038287;28;20340;-78
2022/12/30 07:52:09;;;;;;;15.20;7.03;;;7.40;99.90;;;;;;5035224;28;20202;-78
2022/12/30 07:54:36;;;;;;;12.93;6.90;;;7.40;99.90;;;;;;5052086;28;20204;-78
2022/12/30 07:57:15;;;;;;;12.60;6.90;;;7.50;99.90;;;;;;5053443;28;20194;-78
2022/12/30 07:59:46;;;;;;;12.00;6.77;;;7.50;99.90;;;;;;5035659;28;20655;-78
2022/12/30 08:02:17;;;;;;;14.80;6.90;;;7.50;99.90;;;;;;5035659;28;20217;-78
2022/12/30 08:04:46;;;;;;;11.63;6.70;;;7.60;99.90;;;;;;5035355;28;20247;-78
2022/12/30 08:07:19;;;;;;;13.00;6.17;;;7.60;99.90;;;;;;5035414;28;20198;-80
2022/12/30 08:09:47;;;;;;;13.33;7.07;;;7.70;99.90;;;;;;5052920;28;20323;-77
2022/12/30 08:12:18;;;;;;;10.50;6.03;;;7.70;99.90;;;;;;5035258;28;20194;-78
2022/12/30 08:15:06;;;;;;;13.57;6.63;;;7.80;99.90;;;;;;5035172;28;20203;-80
2022/12/30 08:17:39;;;;;;;12.47;6.40;;;7.80;99.90;;;;;;5053225;28;20667;-79
2022/12/30 08:20:10;;;;;;;13.10;6.70;;;7.90;99.90;;;;;;5040686;28;20213;-78
2022/12/30 08:22:40;;;;;;;11.83;6.50;;;7.80;99.90;;;;;;5052230;28;20741;-78
2022/12/30 08:25:12;;;;;;;14.87;6.70;;;7.80;99.90;;;;;;5053455;28;20502;-78
2022/12/30 08:28:14;;;;;;;13.10;6.27;;;7.90;99.90;;;;;;5053209;28;20198;-77
2022/12/30 08:30:42;;;;;;;11.57;6.10;;;8.00;99.90;;;;;;5035393;28;20232;-78
2022/12/30 08:33:14;;;;;;;11.13;5.77;;;8.00;99.90;;;;;;5035415;28;20648;-77
2022/12/30 08:35:59;;;;;;;10.63;5.90;;;7.90;99.90;;;;;;5020105;28;20651;-78
2022/12/30 08:38:27;;;;;;;13.07;5.70;;;8.00;99.90;;;;;;5022905;28;20285;-78
2022/12/30 08:41:02;;;;;;;10.60;6.03;;;7.90;99.90;;;;;;5016349;28;20701;-78
2022/12/30 08:43:33;;;;;;;13.30;5.77;;;7.90;99.90;;;;;;5017414;28;20184;-78
2022/12/30 08:46:01;;;;;;;11.80;6.23;;;8.00;99.90;;;;;;5017331;28;20196;-78
2022/12/30 08:48:28;;;;;;;11.53;5.60;;;7.90;99.90;;;;;;5017999;28;20215;-78
2022/12/30 08:50:59;;;;;;;11.17;5.70;;;8.00;99.90;;;;;;5016980;28;20263;-78
2022/12/30 08:53:26;;;;;;;11.77;5.57;;;8.00;99.90;;;;;;5017524;28;20275;-78
2022/12/30 08:56:16;;;;;;;10.37;5.63;;;7.90;99.90;;;;;;5015332;28;20199;-78
2022/12/30 08:58:53;;;;;;;11.87;5.20;;;7.90;99.90;;;;;;5017044;28;20262;-78
2022/12/30 09:01:30;;;;;;;8.80;4.83;;;7.90;99.90;;;;;;5016708;28;20199;-78
2022/12/30 09:03:58;;;;;;;8.93;4.97;;;8.00;99.90;;;;;;5016866;28;20625;-78
2022/12/30 09:06:33;;;;;;;11.10;4.97;;;8.10;99.90;;;;;;5015901;28;20203;-78
2022/12/30 09:09:12;;;;;;;13.93;4.87;;;8.10;99.90;;;;;;5032267;28;20221;-78
2022/12/30 09:11:47;;;;;;;8.53;4.40;;;8.20;99.90;;;;;;5031514;28;20669;-78
2022/12/30 09:14:20;;;;;;;8.50;4.50;;;8.30;99.90;;;;;;5016747;28;20210;-78
2022/12/30 09:16:59;;;;;;;9.37;4.30;;;8.40;99.90;;;;;;5031694;28;20547;-78
2022/12/30 09:19:27;;;;;;;8.07;4.37;;;8.50;99.90;;;;;;5016573;28;20214;-78
2022/12/30 09:21:56;;;;;;;10.10;4.10;;;8.50;99.90;;;;;;5016882;28;20194;-79
2022/12/30 09:24:24;;;;;;;10.97;4.77;;;8.60;99.90;;;;;;5015083;28;20192;-78
2022/12/30 09:26:56;;;;;;;11.30;4.70;;;8.70;99.90;;;;;;5031459;28;20659;-78
2022/12/30 09:29:39;;;;;;;9.50;4.60;;;8.70;99.90;;;;;;5031432;28;20242;-78
2022/12/30 09:32:09;;;;;;;8.33;4.17;;;8.70;99.90;;;;;;5015074;28;20298;-78
2022/12/30 09:34:45;;;;;;;9.87;4.00;;;8.70;99.90;;;;;;5015942;28;20594;-78
2022/12/30 09:37:14;;;;;;;8.67;4.00;;;8.70;99.90;;;;;;5019808;28;20176;-78
2022/12/30 09:39:53;;;;;;;9.40;3.93;;;8.70;99.90;;;;;;5037983;28;20529;-78
2022/12/30 09:45:41;;;;;;;9.37;3.63;;;8.80;99.90;;;;;;5056371;28;20636;-78
2022/12/30 09:48:19;;;;;;;6.70;3.60;;;8.70;99.90;;;;;;5055285;28;20205;-77
2022/12/30 09:51:03;;;;;;;7.77;3.33;;;8.90;99.90;;;;;;5037117;28;20243;-78
2022/12/30 09:53:49;;;;;;;7.87;3.60;;;8.70;99.90;;;;;;5055374;28;20190;-78
2022/12/30 09:56:34;;;;;;;8.83;3.40;;;8.70;99.90;;;;;;5055808;28;20195;-78
2022/12/30 09:59:17;;;;;;;8.73;3.50;;;8.70;99.90;;;;;;5055604;28;20187;-78
2022/12/30 10:01:50;;;;;;;6.93;3.70;;;8.80;99.90;;;;;;5055242;28;20189;-79
2022/12/30 10:04:20;;;;;;;7.37;3.10;;;8.80;99.90;;;;;;5037409;28;20202;-78
2022/12/30 10:06:51;;;;;;;7.97;3.07;;;8.80;99.90;;;;;;5053922;28;20649;-79
2022/12/30 10:09:33;;;;;;;8.00;3.20;;;8.80;99.90;;;;;;5037426;28;20230;-77
2022/12/30 10:12:26;;;;;;;9.13;3.20;;;8.90;99.90;;;;;;5037271;28;20199;-77
2022/12/30 10:15:26;;;;;;;7.07;3.10;;;8.90;99.90;;;;;;5037429;28;20194;-78
2022/12/30 10:17:53;;;;;;;6.73;3.33;;;8.90;99.90;;;;;;5042938;28;20203;-79
2022/12/30 10:20:47;;;;;;;9.43;3.10;;;9.00;99.90;;;;;;5054326;28;20195;-78
2022/12/30 10:23:53;;;;;;;8.23;3.53;;;9.00;99.90;;;;;;5055504;28;20194;-78
2022/12/30 10:26:47;;;;;;;4.67;2.63;;;9.00;99.90;;;;;;5053741;28;20198;-79
2022/12/30 10:30:10;;;;;;;6.13;2.70;;;9.00;99.90;;;;;;5054374;28;20707;-78
2022/12/30 10:33:28;;;;;;;7.57;2.60;;;9.10;99.90;;;;;;5055241;28;20202;-79
2022/12/30 10:36:21;;;;;;;6.97;2.57;;;9.10;99.90;;;;;;5055027;28;20573;-79
2022/12/30 10:39:01;;;;;;;8.67;2.77;;;9.10;99.90;;;;;;5036801;28;20617;-78
2022/12/30 10:41:49;;;;;;;6.63;2.77;;;9.00;99.90;;;;;;5037085;28;20193;-78
2022/12/30 10:45:06;;;;;;;;;;;;;;;;;;;;;
2022/12/30 10:48:02;;;;;;;6.53;2.20;;;8.90;99.90;;;;;;5035871;28;20654;-79
2022/12/30 10:50:39;;;;;;;8.50;2.60;;;8.90;99.90;;;;;;5053972;28;20328;-79
2022/12/30 10:53:13;;;;;;;6.20;2.50;;;8.90;99.90;;;;;;5054145;28;20181;-79
2022/12/30 10:55:50;;;;;;;7.67;2.63;;;8.90;99.90;;;;;;5036249;28;20252;-78
2022/12/30 10:58:40;;;;;;;6.97;2.63;;;8.80;99.90;;;;;;5036478;28;20285;-78
2022/12/30 11:01:19;;;;;;;8.27;2.43;;;8.80;99.90;;;;;;5019868;28;20303;-78
2022/12/30 11:03:52;;;;;;;8.17;2.57;;;8.90;99.90;;;;;;5036224;28;20208;-78
2022/12/30 11:06:24;;;;;;;10.83;2.67;;;9.00;99.90;;;;;;5052947;28;20293;-79
2022/12/30 11:08:53;;;;;;;6.47;2.60;;;9.00;99.90;;;;;;5036088;28;20194;-78
2022/12/30 11:14:42;;;;;;;7.50;2.37;;;9.00;99.90;;;;;;5036055;28;20293;-78
2022/12/30 11:14:48;;;;;;;6.13;2.07;;;9.10;99.90;;;;;;5054160;28;20178;-78
2022/12/30 11:17:28;;;;;;;8.17;2.47;;;9.10;99.90;;;;;;5054035;28;20179;-78
2022/12/30 11:20:22;;;;;;;8.40;2.53;;;9.10;99.90;;;;;;5035979;28;20662;-78
2022/12/30 11:22:54;;;;;;;7.03;2.40;;;9.00;99.90;;;;;;5054071;28;20187;-79
2022/12/30 11:25:33;;;;;;;4.63;1.90;;;9.00;99.90;;;;;;5053928;28;20205;-78
2022/12/30 11:28:14;;;;;;;7.87;2.03;;;9.00;99.90;;;;;;5035677;28;20209;-78
2022/12/30 11:30:52;;;;;;;5.93;2.20;;;8.90;99.90;;;;;;5036017;28;20584;-79
2022/12/30 11:33:48;;;;;;;5.63;1.83;;;8.90;99.90;;;;;;5053605;28;20244;-79
2022/12/30 11:36:18;;;;;;;4.07;1.73;;;8.90;99.90;;;;;;5052496;28;20278;-78
2022/12/30 11:38:49;;;;;;;8.47;1.93;;;8.90;99.90;;;;;;5035777;28;20233;-78
2022/12/30 11:41:18;;;;;;;6.23;1.90;;;8.90;99.90;;;;;;5053491;28;20190;-78
2022/12/30 11:43:59;;;;;;;7.77;1.90;;;9.10;99.90;;;;;;5053550;28;20236;-78
2022/12/30 11:46:33;;;;;;;7.80;1.97;;;9.40;99.90;;;;;;5035758;28;20202;-79
2022/12/30 11:49:20;;;;;;;5.13;2.03;;;9.90;99.90;;;;;;5035701;28;20194;-79
2022/12/30 11:51:50;;;;;;;4.80;2.00;;;10.40;99.90;;;;;;5053743;28;20262;-79
2022/12/30 11:54:24;;;;;;;7.00;1.90;;;10.70;99.90;;;;;;5053401;28;20220;-79
2022/12/30 11:57:05;;;;;;;4.73;1.83;;;10.70;99.90;;;;;;5035477;28;20201;-79
2022/12/30 11:59:50;;;;;;;4.27;1.80;;;11.00;99.90;;;;;;5051976;28;20195;-79
2022/12/30 12:02:37;;;;;;;5.60;1.80;;;11.00;99.90;;;;;;5035843;28;20199;-79
2022/12/30 12:05:22;;;;;;;8.40;2.07;;;10.90;99.90;;;;;;5053124;28;20218;-79
2022/12/30 12:07:53;;;;;;;7.50;1.93;;;10.60;99.90;;;;;;5054199;28;20244;-80
2022/12/30 12:10:24;;;;;;;9.10;2.00;;;10.30;99.90;;;;;;5053650;28;20241;-80
2022/12/30 12:13:01;;;;;;;5.90;2.13;;;10.10;99.90;;;;;;5052387;28;20195;-79
2022/12/30 12:15:50;;;;;;;7.90;2.10;;;10.10;99.90;;;;;;5053260;28;20201;-78
2022/12/30 12:18:26;;;;;;;5.50;1.70;;;9.90;99.90;;;;;;5052268;28;20659;-78
2022/12/30 12:21:05;;;;;;;8.83;1.93;;;9.90;99.90;;;;;;5052998;28;20198;-78
2022/12/30 12:23:44;;;;;;;7.10;1.90;;;9.70;99.90;;;;;;5053383;28;20203;-78
2022/12/30 12:26:34;;;;;;;5.70;1.67;;;9.60;99.90;;;;;;5035225;28;20206;-76
2022/12/30 12:29:04;;;;;;;5.67;1.97;;;9.50;99.90;;;;;;5072724;28;20499;-77
2022/12/30 12:32:05;;;;;;;6.23;1.80;;;9.50;99.90;;;;;;5068833;28;20737;-77
2022/12/30 12:35:19;;;;;;;5.03;1.90;;;9.50;99.90;;;;;;5048094;28;20247;-77
2022/12/30 12:38:01;;;;;;;6.70;2.03;;;9.30;99.90;;;;;;5053650;28;20221;-79
2022/12/30 12:40:55;;;;;;;5.27;2.10;;;9.30;99.90;;;;;;5050426;28;20667;-78
2022/12/30 12:43:53;;;;;;;8.37;2.03;;;9.20;99.90;;;;;;5038163;28;20285;-78
2022/12/30 12:46:38;;;;;;;5.43;2.00;;;9.20;99.90;;;;;;5054967;28;20202;-77
2022/12/30 12:53:02;;;;;;;7.10;1.63;;;9.10;99.90;;;;;;4959515;28;20209;-77
2022/12/30 12:55:49;;;;;;;5.30;1.63;;;9.00;99.90;;;;;;4939706;28;20205;-78
2022/12/30 12:58:25;;;;;;;6.00;1.80;;;9.20;99.90;;;;;;4972071;28;20204;-79
2022/12/30 13:01:10;;;;;;;7.57;1.97;;;9.10;99.90;;;;;;4972567;28;20205;-79
2022/12/30 13:03:53;;;;;;;6.93;1.90;;;9.20;99.90;;;;;;4955070;28;20341;-77
2022/12/30 13:06:20;;;;;;;7.30;2.17;;;9.30;99.90;;;;;;4971481;28;20252;-78
2022/12/30 13:09:15;;;;;;;7.23;1.97;;;9.60;99.90;;;;;;4955858;28;20202;-78
2022/12/30 13:12:13;;;;;;;5.20;2.03;;;9.80;99.90;;;;;;4955559;28;20702;-77
2022/12/30 13:14:45;;;;;;;8.03;1.90;;;10.10;99.90;;;;;;4955844;28;20260;-78
2022/12/30 13:17:23;;;;;;;9.63;2.30;;;10.40;99.90;;;;;;4955824;28;20201;-77
2022/12/30 13:19:56;;;;;;;7.57;2.27;;;10.40;99.90;;;;;;4971596;28;20201;-77
2022/12/30 13:22:37;;;;;;;7.83;2.00;;;10.70;99.90;;;;;;4972170;28;20736;-79
2022/12/30 13:25:33;;;;;;;7.63;2.10;;;10.70;99.90;;;;;;4974903;28;20213;-79
2022/12/30 13:28:01;;;;;;;6.87;2.13;;;10.70;99.90;;;;;;4975463;28;20240;-78
2022/12/30 13:30:39;;;;;;;8.20;2.37;;;10.80;99.90;;;;;;5043251;28;20236;-78
2022/12/30 13:33:21;;;;;;;7.10;2.17;;;10.60;99.90;;;;;;5075995;28;20545;-79
2022/12/30 13:35:58;;;;;;;5.00;1.93;;;10.60;99.90;;;;;;5028127;28;20350;-86
2022/12/30 13:38:31;;;;;;;5.13;2.13;;;10.50;99.90;;;;;;5037678;28;20250;-79
2022/12/30 13:41:22;;;;;;;4.63;2.10;;;10.60;99.90;;;;;;5037781;28;20632;-75
2022/12/30 13:43:58;;;;;;;6.30;2.30;;;10.60;99.90;;;;;;5054246;28;20687;-79
2022/12/30 13:46:29;;;;;;;8.57;2.20;;;10.50;99.90;;;;;;5055336;28;20218;-77
2022/12/30 13:49:11;;;;;;;7.50;2.17;;;9.80;99.90;;;;;;5056009;28;20187;-77
2022/12/30 13:51:39;;;;;;;6.00;2.10;;;9.90;99.90;;;;;;5058212;28;20429;-75
2022/12/30 13:54:13;;;;;;;6.50;1.90;;;9.80;99.90;;;;;;5063130;28;20183;-76
2022/12/30 13:56:54;;;;;;;8.27;2.13;;;9.90;99.90;;;;;;5048603;28;20515;-74
2022/12/30 13:59:38;;;;;;;8.27;2.10;;;9.80;99.90;;;;;;5051004;28;20226;-77
2022/12/30 14:02:47;;;;;;;7.60;2.47;;;9.70;99.90;;;;;;5055561;28;20201;-76
2022/12/30 14:05:54;;;;;;;9.33;2.40;;;9.50;99.90;;;;;;4993662;28;20237;-79
2022/12/30 14:08:44;;;;;;;9.00;2.50;;;9.40;99.90;;;;;;4992752;28;20262;-80
2022/12/30 14:11:13;;;;;;;7.57;2.30;;;9.20;99.90;;;;;;4915479;29;20226;-81
2022/12/30 14:14:06;;;;;;;7.63;2.10;;;9.10;99.90;;;;;;4916697;29;20201;-75
2022/12/30 14:16:51;;;;;;;8.47;2.50;;;8.90;99.90;;;;;;4933234;29;20255;-76
2022/12/30 14:19:53;;;;;;;8.50;2.20;;;8.80;99.90;;;;;;4901086;29;20207;-74
2022/12/30 14:22:40;;;;;;;11.10;2.50;;;8.60;99.90;;;;;;4901538;29;20626;-75
2022/12/30 14:25:29;;;;;;;8.83;2.63;;;8.50;99.90;;;;;;4898688;29;20233;-75
2022/12/30 14:28:25;;;;;;;6.93;2.40;;;8.30;99.90;;;;;;4902371;29;20219;-74
2022/12/30 14:31:21;;;;;;;6.53;2.50;;;8.40;99.90;;;;;;4912333;29;20227;-74
2022/12/30 14:34:07;;;;;;;6.83;2.50;;;8.10;99.90;;;;;;4897444;29;20211;-74
2022/12/30 14:36:58;;;;;;;9.70;3.07;;;8.10;99.90;;;;;;4907689;29;20223;-75
2022/12/30 14:39:39;;;;;;;8.70;2.50;;;8.00;99.90;;;;;;4892859;29;20240;-74
2022/12/30 14:42:22;;;;;;;8.23;2.47;;;8.00;99.90;;;;;;4899108;29;20247;-73
2022/12/30 14:44:55;;;;;;;10.33;3.00;;;7.90;99.90;;;;;;4916070;29;20207;-75
2022/12/30 14:47:45;;;;;;;5.97;2.67;;;7.80;99.90;;;;;;4910158;28;20204;-75
2022/12/30 14:50:15;;;;;;;8.33;2.60;;;7.80;99.90;;;;;;4974063;28;20238;-79